sensor_id;sensor_type;location;lat;lon;timestamp;pressure;altitude;pressure_sealevel;temperature
34023;BMP280;20673;48.980;8.138;2022-10-23T00:01:33;100112.47;;;10.44
34023;BMP280;20673;48.980;8.138;2022-10-23T00:04:08;100111.51;;;10.49
34023;BMP280;20673;48.980;8.138;2022-10-23T00:06:35;100112.52;;;10.52
34023;BMP280;20673;48.980;8.138;2022-10-23T00:09:03;100114.62;;;10.44
34023;BMP280;20673;48.980;8.138;2022-10-23T00:11:31;100115.84;;;10.40
34023;BMP280;20673;48.980;8.138;2022-10-23T00:14:01;100110.78;;;10.35
34023;BMP280;20673;48.980;8.138;2022-10-23T00:16:28;100105.34;;;10.34
34023;BMP280;20673;48.980;8.138;2022-10-23T00:18:55;100106.61;;;10.39
34023;BMP280;20673;48.980;8.138;2022-10-23T00:21:23;100105.78;;;10.39
34023;BMP280;20673;48.980;8.138;2022-10-23T00:23:49;100098.49;;;10.37
34023;BMP280;20673;48.980;8.138;2022-10-23T00:26:16;100093.95;;;10.37
34023;BMP280;20673;48.980;8.138;2022-10-23T00:28:45;100089.62;;;10.33
34023;BMP280;20673;48.980;8.138;2022-10-23T00:31:12;100084.45;;;10.29
34023;BMP280;20673;48.980;8.138;2022-10-23T00:33:39;100089.53;;;10.32
34023;BMP280;20673;48.980;8.138;2022-10-23T00:36:09;100093.42;;;10.31
34023;BMP280;20673;48.980;8.138;2022-10-23T00:38:36;100092.72;;;10.29
34023;BMP280;20673;48.980;8.138;2022-10-23T00:41:04;100090.00;;;10.28
34023;BMP280;20673;48.980;8.138;2022-10-23T00:43:32;100087.98;;;10.25
34023;BMP280;20673;48.980;8.138;2022-10-23T00:45:58;100096.97;;;10.24
34023;BMP280;20673;48.980;8.138;2022-10-23T00:48:26;100096.86;;;10.22
34023;BMP280;20673;48.980;8.138;2022-10-23T00:50:53;100099.33;;;10.21
34023;BMP280;20673;48.980;8.138;2022-10-23T00:53:21;100099.04;;;10.18
34023;BMP280;20673;48.980;8.138;2022-10-23T00:55:50;100086.33;;;10.14
34023;BMP280;20673;48.980;8.138;2022-10-23T00:58:20;100083.97;;;10.15
34023;BMP280;20673;48.980;8.138;2022-10-23T01:00:55;100080.73;;;10.14
34023;BMP280;20673;48.980;8.138;2022-10-23T01:03:21;100079.73;;;10.12
34023;BMP280;20673;48.980;8.138;2022-10-23T01:06:07;100074.64;;;10.13
34023;BMP280;20673;48.980;8.138;2022-10-23T01:17:22;100067.36;;;10.09
34023;BMP280;20673;48.980;8.138;2022-10-23T01:26:06;100076.40;;;10.01
34023;BMP280;20673;48.980;8.138;2022-10-23T01:28:35;100080.31;;;10.01
34023;BMP280;20673;48.980;8.138;2022-10-23T01:31:05;100082.30;;;10.03
34023;BMP280;20673;48.980;8.138;2022-10-23T01:33:40;100073.97;;;10.06
34023;BMP280;20673;48.980;8.138;2022-10-23T01:36:14;100071.75;;;10.03
34023;BMP280;20673;48.980;8.138;2022-10-23T01:41:45;100063.28;;;9.97
34023;BMP280;20673;48.980;8.138;2022-10-23T01:44:22;100067.97;;;9.94
34023;BMP280;20673;48.980;8.138;2022-10-23T01:46:50;100064.03;;;9.95
34023;BMP280;20673;48.980;8.138;2022-10-23T01:49:20;100057.24;;;9.95
34023;BMP280;20673;48.980;8.138;2022-10-23T01:51:55;100048.34;;;9.97
34023;BMP280;20673;48.980;8.138;2022-10-23T01:54:28;100036.95;;;10.01
34023;BMP280;20673;48.980;8.138;2022-10-23T01:56:56;100042.40;;;10.00
34023;BMP280;20673;48.980;8.138;2022-10-23T01:59:28;100044.32;;;10.00
34023;BMP280;20673;48.980;8.138;2022-10-23T02:01:57;100045.68;;;10.02
34023;BMP280;20673;48.980;8.138;2022-10-23T02:04:54;100040.47;;;10.01
34023;BMP280;20673;48.980;8.138;2022-10-23T02:07:18;100044.29;;;10.07
34023;BMP280;20673;48.980;8.138;2022-10-23T02:09:44;100045.42;;;10.07
34023;BMP280;20673;48.980;8.138;2022-10-23T02:15:44;100033.48;;;10.06
34023;BMP280;20673;48.980;8.138;2022-10-23T02:17:50;100022.51;;;10.05
34023;BMP280;20673;48.980;8.138;2022-10-23T02:20:26;100021.89;;;10.02
34023;BMP280;20673;48.980;8.138;2022-10-23T02:23:12;100030.73;;;10.02
34023;BMP280;20673;48.980;8.138;2022-10-23T02:25:49;100028.80;;;10.06
34023;BMP280;20673;48.980;8.138;2022-10-23T02:28:22;100028.66;;;10.09
34023;BMP280;20673;48.980;8.138;2022-10-23T02:30:49;100032.36;;;10.09
34023;BMP280;20673;48.980;8.138;2022-10-23T02:33:16;100033.76;;;10.10
34023;BMP280;20673;48.980;8.138;2022-10-23T02:35:45;100033.90;;;10.12
34023;BMP280;20673;48.980;8.138;2022-10-23T02:38:39;100033.26;;;10.10
34023;BMP280;20673;48.980;8.138;2022-10-23T02:41:40;100027.26;;;10.06
34023;BMP280;20673;48.980;8.138;2022-10-23T02:52:51;100010.52;;;9.99
34023;BMP280;20673;48.980;8.138;2022-10-23T02:55:59;100013.81;;;9.97
34023;BMP280;20673;48.980;8.138;2022-10-23T03:01:18;99997.55;;;10.01
34023;BMP280;20673;48.980;8.138;2022-10-23T03:03:53;99992.93;;;10.03
34023;BMP280;20673;48.980;8.138;2022-10-23T03:06:22;99999.86;;;10.02
34023;BMP280;20673;48.980;8.138;2022-10-23T03:11:21;99997.85;;;10.01
34023;BMP280;20673;48.980;8.138;2022-10-23T03:13:47;99994.76;;;10.00
34023;BMP280;20673;48.980;8.138;2022-10-23T03:16:13;100000.51;;;10.02
34023;BMP280;20673;48.980;8.138;2022-10-23T03:18:39;99995.93;;;10.04
34023;BMP280;20673;48.980;8.138;2022-10-23T03:21:06;99989.93;;;10.05
34023;BMP280;20673;48.980;8.138;2022-10-23T03:23:32;99988.58;;;10.06
34023;BMP280;20673;48.980;8.138;2022-10-23T03:25:59;99989.76;;;10.08
34023;BMP280;20673;48.980;8.138;2022-10-23T03:28:25;99993.73;;;10.13
34023;BMP280;20673;48.980;8.138;2022-10-23T03:30:51;99989.37;;;10.16
34023;BMP280;20673;48.980;8.138;2022-10-23T03:33:18;99979.84;;;10.17
34023;BMP280;20673;48.980;8.138;2022-10-23T03:35:44;99976.17;;;10.16
34023;BMP280;20673;48.980;8.138;2022-10-23T03:38:10;99984.26;;;10.19
34023;BMP280;20673;48.980;8.138;2022-10-23T03:40:36;99978.61;;;10.22
34023;BMP280;20673;48.980;8.138;2022-10-23T03:43:03;99972.21;;;10.25
34023;BMP280;20673;48.980;8.138;2022-10-23T03:45:29;99962.99;;;10.28
34023;BMP280;20673;48.980;8.138;2022-10-23T03:47:55;99961.51;;;10.33
34023;BMP280;20673;48.980;8.138;2022-10-23T03:50:21;99964.17;;;10.36
34023;BMP280;20673;48.980;8.138;2022-10-23T03:52:48;99974.18;;;10.33
34023;BMP280;20673;48.980;8.138;2022-10-23T03:55:14;99974.36;;;10.34
34023;BMP280;20673;48.980;8.138;2022-10-23T03:57:40;99988.15;;;10.34
34023;BMP280;20673;48.980;8.138;2022-10-23T04:00:08;99979.81;;;10.31
34023;BMP280;20673;48.980;8.138;2022-10-23T04:02:34;99977.21;;;10.33
34023;BMP280;20673;48.980;8.138;2022-10-23T04:05:00;99976.28;;;10.32
34023;BMP280;20673;48.980;8.138;2022-10-23T04:07:27;99978.65;;;10.32
34023;BMP280;20673;48.980;8.138;2022-10-23T04:09:53;99969.95;;;10.33
34023;BMP280;20673;48.980;8.138;2022-10-23T04:12:19;99972.22;;;10.31
34023;BMP280;20673;48.980;8.138;2022-10-23T04:14:45;99972.14;;;10.29
34023;BMP280;20673;48.980;8.138;2022-10-23T04:17:11;99971.91;;;10.28
34023;BMP280;20673;48.980;8.138;2022-10-23T04:19:37;99975.45;;;10.32
34023;BMP280;20673;48.980;8.138;2022-10-23T04:22:04;99971.56;;;10.33
34023;BMP280;20673;48.980;8.138;2022-10-23T04:24:30;99977.14;;;10.34
34023;BMP280;20673;48.980;8.138;2022-10-23T04:26:56;99985.50;;;10.31
34023;BMP280;20673;48.980;8.138;2022-10-23T04:29:22;99991.03;;;10.36
34023;BMP280;20673;48.980;8.138;2022-10-23T04:31:50;99993.84;;;10.41
34023;BMP280;20673;48.980;8.138;2022-10-23T04:34:17;99992.61;;;10.45
34023;BMP280;20673;48.980;8.138;2022-10-23T04:36:43;99986.97;;;10.43
34023;BMP280;20673;48.980;8.138;2022-10-23T04:39:10;99977.59;;;10.44
34023;BMP280;20673;48.980;8.138;2022-10-23T04:41:36;99976.48;;;10.45
34023;BMP280;20673;48.980;8.138;2022-10-23T04:44:03;99974.75;;;10.46
34023;BMP280;20673;48.980;8.138;2022-10-23T04:46:30;99969.52;;;10.47
34023;BMP280;20673;48.980;8.138;2022-10-23T04:48:56;99967.00;;;10.48
34023;BMP280;20673;48.980;8.138;2022-10-23T04:51:22;99961.72;;;10.50
34023;BMP280;20673;48.980;8.138;2022-10-23T04:53:48;99947.15;;;10.50
34023;BMP280;20673;48.980;8.138;2022-10-23T04:56:15;99939.60;;;10.45
34023;BMP280;20673;48.980;8.138;2022-10-23T04:58:41;99943.70;;;10.44
34023;BMP280;20673;48.980;8.138;2022-10-23T05:01:09;99955.76;;;10.45
34023;BMP280;20673;48.980;8.138;2022-10-23T05:03:38;99962.64;;;10.48
34023;BMP280;20673;48.980;8.138;2022-10-23T05:06:05;99975.67;;;10.47
34023;BMP280;20673;48.980;8.138;2022-10-23T05:08:31;99975.20;;;10.48
34023;BMP280;20673;48.980;8.138;2022-10-23T05:10:58;99976.58;;;10.46
34023;BMP280;20673;48.980;8.138;2022-10-23T05:13:24;99967.23;;;10.50
34023;BMP280;20673;48.980;8.138;2022-10-23T05:15:51;99957.86;;;10.51
34023;BMP280;20673;48.980;8.138;2022-10-23T05:18:29;99958.18;;;10.47
34023;BMP280;20673;48.980;8.138;2022-10-23T05:21:04;99951.91;;;10.47
34023;BMP280;20673;48.980;8.138;2022-10-23T05:23:33;99942.23;;;10.43
34023;BMP280;20673;48.980;8.138;2022-10-23T05:26:02;99936.51;;;10.40
34023;BMP280;20673;48.980;8.138;2022-10-23T05:28:29;99933.72;;;10.38
34023;BMP280;20673;48.980;8.138;2022-10-23T05:30:59;99935.61;;;10.36
34023;BMP280;20673;48.980;8.138;2022-10-23T05:33:26;99933.83;;;10.31
34023;BMP280;20673;48.980;8.138;2022-10-23T05:35:53;99932.64;;;10.32
34023;BMP280;20673;48.980;8.138;2022-10-23T05:38:20;99932.56;;;10.28
34023;BMP280;20673;48.980;8.138;2022-10-23T05:40:47;99930.39;;;10.24
34023;BMP280;20673;48.980;8.138;2022-10-23T05:43:15;99936.80;;;10.19
34023;BMP280;20673;48.980;8.138;2022-10-23T05:45:41;99936.43;;;10.19
34023;BMP280;20673;48.980;8.138;2022-10-23T05:48:07;99936.18;;;10.12
34023;BMP280;20673;48.980;8.138;2022-10-23T05:50:37;99923.50;;;10.06
34023;BMP280;20673;48.980;8.138;2022-10-23T05:53:03;99925.70;;;10.00
34023;BMP280;20673;48.980;8.138;2022-10-23T05:55:29;99924.90;;;9.96
34023;BMP280;20673;48.980;8.138;2022-10-23T05:57:56;99921.64;;;9.94
34023;BMP280;20673;48.980;8.138;2022-10-23T06:00:22;99917.32;;;9.97
34023;BMP280;20673;48.980;8.138;2022-10-23T06:02:48;99914.23;;;9.96
34023;BMP280;20673;48.980;8.138;2022-10-23T06:05:14;99923.28;;;9.92
34023;BMP280;20673;48.980;8.138;2022-10-23T06:07:40;99915.17;;;9.98
34023;BMP280;20673;48.980;8.138;2022-10-23T06:10:07;99916.53;;;9.97
34023;BMP280;20673;48.980;8.138;2022-10-23T06:12:33;99921.97;;;9.97
34023;BMP280;20673;48.980;8.138;2022-10-23T06:14:59;99909.92;;;9.99
34023;BMP280;20673;48.980;8.138;2022-10-23T06:17:27;99899.64;;;10.00
34023;BMP280;20673;48.980;8.138;2022-10-23T06:19:53;99902.72;;;10.00
34023;BMP280;20673;48.980;8.138;2022-10-23T06:22:21;99903.86;;;10.03
34023;BMP280;20673;48.980;8.138;2022-10-23T06:24:48;99899.92;;;10.03
34023;BMP280;20673;48.980;8.138;2022-10-23T06:27:14;99916.05;;;10.02
34023;BMP280;20673;48.980;8.138;2022-10-23T06:29:40;99912.47;;;10.04
34023;BMP280;20673;48.980;8.138;2022-10-23T06:32:06;99913.28;;;10.06
34023;BMP280;20673;48.980;8.138;2022-10-23T06:34:33;99902.41;;;10.03
34023;BMP280;20673;48.980;8.138;2022-10-23T06:36:59;99906.25;;;10.08
34023;BMP280;20673;48.980;8.138;2022-10-23T06:39:25;99913.83;;;10.10
34023;BMP280;20673;48.980;8.138;2022-10-23T06:41:52;99912.37;;;10.13
34023;BMP280;20673;48.980;8.138;2022-10-23T06:44:18;99908.46;;;10.15
34023;BMP280;20673;48.980;8.138;2022-10-23T06:46:44;99902.35;;;10.22
34023;BMP280;20673;48.980;8.138;2022-10-23T06:49:14;99900.29;;;10.21
34023;BMP280;20673;48.980;8.138;2022-10-23T06:51:40;99904.22;;;10.26
34023;BMP280;20673;48.980;8.138;2022-10-23T06:54:09;99907.34;;;10.27
34023;BMP280;20673;48.980;8.138;2022-10-23T06:56:36;99906.89;;;10.35
34023;BMP280;20673;48.980;8.138;2022-10-23T06:59:03;99915.90;;;10.39
34023;BMP280;20673;48.980;8.138;2022-10-23T07:01:31;99922.11;;;10.48
34023;BMP280;20673;48.980;8.138;2022-10-23T07:03:57;99936.15;;;10.56
34023;BMP280;20673;48.980;8.138;2022-10-23T07:06:23;99933.93;;;10.62
34023;BMP280;20673;48.980;8.138;2022-10-23T07:08:49;99939.63;;;10.71
34023;BMP280;20673;48.980;8.138;2022-10-23T07:11:17;99945.81;;;10.79
34023;BMP280;20673;48.980;8.138;2022-10-23T07:13:43;99941.40;;;10.87
34023;BMP280;20673;48.980;8.138;2022-10-23T07:16:18;99948.29;;;10.95
34023;BMP280;20673;48.980;8.138;2022-10-23T07:18:47;99946.79;;;11.04
34023;BMP280;20673;48.980;8.138;2022-10-23T07:21:13;99941.68;;;11.14
34023;BMP280;20673;48.980;8.138;2022-10-23T07:23:40;99937.28;;;11.20
34023;BMP280;20673;48.980;8.138;2022-10-23T07:26:13;99941.31;;;11.30
34023;BMP280;20673;48.980;8.138;2022-10-23T07:28:41;99942.78;;;11.38
34023;BMP280;20673;48.980;8.138;2022-10-23T07:31:08;99938.84;;;11.45
34023;BMP280;20673;48.980;8.138;2022-10-23T07:33:35;99947.08;;;11.57
34023;BMP280;20673;48.980;8.138;2022-10-23T07:36:05;99941.25;;;11.69
34023;BMP280;20673;48.980;8.138;2022-10-23T07:38:32;99936.46;;;11.85
34023;BMP280;20673;48.980;8.138;2022-10-23T07:40:59;99927.33;;;12.06
34023;BMP280;20673;48.980;8.138;2022-10-23T07:43:25;99923.89;;;12.35
34023;BMP280;20673;48.980;8.138;2022-10-23T07:45:52;99926.33;;;12.43
34023;BMP280;20673;48.980;8.138;2022-10-23T07:48:19;99922.72;;;12.72
34023;BMP280;20673;48.980;8.138;2022-10-23T07:50:50;99923.58;;;12.88
34023;BMP280;20673;48.980;8.138;2022-10-23T07:53:19;99922.96;;;13.13
34023;BMP280;20673;48.980;8.138;2022-10-23T07:55:58;99919.81;;;13.37
34023;BMP280;20673;48.980;8.138;2022-10-23T07:58:26;99927.42;;;13.62
34023;BMP280;20673;48.980;8.138;2022-10-23T08:00:59;99931.58;;;13.84
34023;BMP280;20673;48.980;8.138;2022-10-23T08:03:30;99920.01;;;14.14
34023;BMP280;20673;48.980;8.138;2022-10-23T08:05:58;99925.95;;;14.34
34023;BMP280;20673;48.980;8.138;2022-10-23T08:08:25;99926.19;;;14.51
34023;BMP280;20673;48.980;8.138;2022-10-23T08:10:53;99928.29;;;14.75
34023;BMP280;20673;48.980;8.138;2022-10-23T08:13:21;99921.09;;;15.04
34023;BMP280;20673;48.980;8.138;2022-10-23T08:15:50;99933.62;;;15.17
34023;BMP280;20673;48.980;8.138;2022-10-23T08:18:17;99942.29;;;15.55
34023;BMP280;20673;48.980;8.138;2022-10-23T08:20:46;99941.70;;;15.72
34023;BMP280;20673;48.980;8.138;2022-10-23T08:23:17;99942.95;;;16.00
34023;BMP280;20673;48.980;8.138;2022-10-23T08:25:45;99937.04;;;16.30
34023;BMP280;20673;48.980;8.138;2022-10-23T08:28:12;99933.86;;;16.36
34023;BMP280;20673;48.980;8.138;2022-10-23T08:30:38;99935.56;;;16.56
34023;BMP280;20673;48.980;8.138;2022-10-23T08:33:05;99926.70;;;16.96
34023;BMP280;20673;48.980;8.138;2022-10-23T08:35:39;99924.56;;;17.24
34023;BMP280;20673;48.980;8.138;2022-10-23T08:38:06;99923.08;;;17.25
34023;BMP280;20673;48.980;8.138;2022-10-23T08:40:34;99922.31;;;17.57
34023;BMP280;20673;48.980;8.138;2022-10-23T08:45:59;99917.97;;;17.96
34023;BMP280;20673;48.980;8.138;2022-10-23T08:48:44;99902.95;;;18.07
34023;BMP280;20673;48.980;8.138;2022-10-23T08:51:41;99884.92;;;18.38
34023;BMP280;20673;48.980;8.138;2022-10-23T08:54:24;99875.09;;;18.49
34023;BMP280;20673;48.980;8.138;2022-10-23T08:57:03;99868.11;;;18.74
34023;BMP280;20673;48.980;8.138;2022-10-23T08:59:43;99875.83;;;18.92
34023;BMP280;20673;48.980;8.138;2022-10-23T09:02:28;99878.26;;;19.11
34023;BMP280;20673;48.980;8.138;2022-10-23T09:04:57;99873.50;;;19.13
34023;BMP280;20673;48.980;8.138;2022-10-23T09:07:46;99866.28;;;19.29
34023;BMP280;20673;48.980;8.138;2022-10-23T09:10:33;99868.17;;;19.56
34023;BMP280;20673;48.980;8.138;2022-10-23T09:13:24;99868.09;;;19.89
34023;BMP280;20673;48.980;8.138;2022-10-23T09:18:30;99863.36;;;20.41
34023;BMP280;20673;48.980;8.138;2022-10-23T09:20:56;99859.45;;;20.47
34023;BMP280;20673;48.980;8.138;2022-10-23T09:23:23;99863.89;;;20.30
34023;BMP280;20673;48.980;8.138;2022-10-23T09:25:51;99861.26;;;20.35
34023;BMP280;20673;48.980;8.138;2022-10-23T09:28:25;99874.40;;;19.94
34023;BMP280;20673;48.980;8.138;2022-10-23T09:30:52;99871.42;;;20.06
34023;BMP280;20673;48.980;8.138;2022-10-23T09:33:24;99860.54;;;20.19
34023;BMP280;20673;48.980;8.138;2022-10-23T09:35:58;99860.11;;;20.08
34023;BMP280;20673;48.980;8.138;2022-10-23T09:38:36;99869.36;;;20.53
34023;BMP280;20673;48.980;8.138;2022-10-23T09:41:12;99864.50;;;21.05
34023;BMP280;20673;48.980;8.138;2022-10-23T09:43:39;99844.76;;;21.56
34023;BMP280;20673;48.980;8.138;2022-10-23T09:46:06;99842.05;;;22.15
34023;BMP280;20673;48.980;8.138;2022-10-23T09:48:33;99835.36;;;22.48
34023;BMP280;20673;48.980;8.138;2022-10-23T09:51:16;99852.58;;;22.83
34023;BMP280;20673;48.980;8.138;2022-10-23T09:53:56;99845.62;;;22.98
34023;BMP280;20673;48.980;8.138;2022-10-23T09:56:31;99846.97;;;22.99
34023;BMP280;20673;48.980;8.138;2022-10-23T09:59:02;99843.28;;;23.53
34023;BMP280;20673;48.980;8.138;2022-10-23T10:01:33;99839.09;;;23.18
34023;BMP280;20673;48.980;8.138;2022-10-23T10:04:03;99833.34;;;23.62
34023;BMP280;20673;48.980;8.138;2022-10-23T10:06:32;99830.84;;;23.34
34023;BMP280;20673;48.980;8.138;2022-10-23T10:09:12;99830.54;;;23.39
34023;BMP280;20673;48.980;8.138;2022-10-23T10:15:21;99811.63;;;23.42
34023;BMP280;20673;48.980;8.138;2022-10-23T10:18:02;99815.12;;;23.67
34023;BMP280;20673;48.980;8.138;2022-10-23T10:20:41;99801.25;;;24.25
34023;BMP280;20673;48.980;8.138;2022-10-23T10:26:06;99784.29;;;24.69
34023;BMP280;20673;48.980;8.138;2022-10-23T10:37:18;99819.06;;;25.37
34023;BMP280;20673;48.980;8.138;2022-10-23T10:45:48;99819.04;;;24.24
34023;BMP280;20673;48.980;8.138;2022-10-23T10:48:53;99806.03;;;23.71
34023;BMP280;20673;48.980;8.138;2022-10-23T10:51:28;99788.89;;;23.44
34023;BMP280;20673;48.980;8.138;2022-10-23T10:54:15;99784.64;;;22.77
34023;BMP280;20673;48.980;8.138;2022-10-23T10:56:43;99775.12;;;22.42
34023;BMP280;20673;48.980;8.138;2022-10-23T10:59:31;99769.09;;;22.15
34023;BMP280;20673;48.980;8.138;2022-10-23T11:07:30;99770.86;;;21.56
34023;BMP280;20673;48.980;8.138;2022-10-23T11:09:59;99773.90;;;21.56
34023;BMP280;20673;48.980;8.138;2022-10-23T11:12:27;99751.54;;;21.52
34023;BMP280;20673;48.980;8.138;2022-10-23T11:14:55;99748.79;;;21.75
34023;BMP280;20673;48.980;8.138;2022-10-23T11:17:37;99747.67;;;21.94
34023;BMP280;20673;48.980;8.138;2022-10-23T11:20:21;99746.45;;;22.21
34023;BMP280;20673;48.980;8.138;2022-10-23T11:28:47;99740.01;;;23.67
34023;BMP280;20673;48.980;8.138;2022-10-23T11:31:28;99735.23;;;24.05
34023;BMP280;20673;48.980;8.138;2022-10-23T11:34:48;99734.55;;;24.83
34023;BMP280;20673;48.980;8.138;2022-10-23T11:37:18;99729.20;;;25.26
34023;BMP280;20673;48.980;8.138;2022-10-23T11:42:45;99727.79;;;25.78
34023;BMP280;20673;48.980;8.138;2022-10-23T11:45:37;99717.43;;;25.63
34023;BMP280;20673;48.980;8.138;2022-10-23T11:51:03;99719.47;;;25.24
34023;BMP280;20673;48.980;8.138;2022-10-23T11:53:37;99713.00;;;24.79
34023;BMP280;20673;48.980;8.138;2022-10-23T11:58:54;99706.58;;;24.14
34023;BMP280;20673;48.980;8.138;2022-10-23T12:01:40;99694.79;;;23.82
34023;BMP280;20673;48.980;8.138;2022-10-23T12:04:48;99699.68;;;23.82
34023;BMP280;20673;48.980;8.138;2022-10-23T12:06:59;99687.90;;;23.98
34023;BMP280;20673;48.980;8.138;2022-10-23T12:09:43;99699.40;;;24.02
34023;BMP280;20673;48.980;8.138;2022-10-23T12:12:14;99695.89;;;24.36
34023;BMP280;20673;48.980;8.138;2022-10-23T12:14:49;99696.09;;;24.39
34023;BMP280;20673;48.980;8.138;2022-10-23T12:17:28;99692.51;;;24.48
34023;BMP280;20673;48.980;8.138;2022-10-23T12:25:26;99684.84;;;24.23
34023;BMP280;20673;48.980;8.138;2022-10-23T12:34:29;99662.46;;;23.28
34023;BMP280;20673;48.980;8.138;2022-10-23T12:37:33;99654.90;;;23.24
34023;BMP280;20673;48.980;8.138;2022-10-23T12:39:55;99643.42;;;22.98
34023;BMP280;20673;48.980;8.138;2022-10-23T12:42:25;99632.28;;;23.19
34023;BMP280;20673;48.980;8.138;2022-10-23T12:47:47;99630.14;;;23.23
34023;BMP280;20673;48.980;8.138;2022-10-23T12:50:24;99623.11;;;23.26
34023;BMP280;20673;48.980;8.138;2022-10-23T12:52:58;99621.28;;;23.32
34023;BMP280;20673;48.980;8.138;2022-10-23T12:55:29;99620.38;;;23.30
34023;BMP280;20673;48.980;8.138;2022-10-23T12:57:57;99619.33;;;23.08
34023;BMP280;20673;48.980;8.138;2022-10-23T13:00:24;99613.09;;;23.04
34023;BMP280;20673;48.980;8.138;2022-10-23T13:03:02;99610.78;;;22.93
34023;BMP280;20673;48.980;8.138;2022-10-23T13:05:30;99604.90;;;22.87
34023;BMP280;20673;48.980;8.138;2022-10-23T13:07:59;99602.66;;;22.95
34023;BMP280;20673;48.980;8.138;2022-10-23T13:10:26;99598.38;;;22.94
34023;BMP280;20673;48.980;8.138;2022-10-23T13:13:01;99594.22;;;22.84
34023;BMP280;20673;48.980;8.138;2022-10-23T13:15:40;99585.97;;;22.79
34023;BMP280;20673;48.980;8.138;2022-10-23T13:18:06;99587.98;;;22.77
34023;BMP280;20673;48.980;8.138;2022-10-23T13:20:36;99589.25;;;22.73
34023;BMP280;20673;48.980;8.138;2022-10-23T13:23:24;99590.08;;;22.54
34023;BMP280;20673;48.980;8.138;2022-10-23T13:26:03;99586.38;;;22.42
34023;BMP280;20673;48.980;8.138;2022-10-23T13:28:42;99581.68;;;22.43
34023;BMP280;20673;48.980;8.138;2022-10-23T13:36:30;99574.01;;;22.30
34023;BMP280;20673;48.980;8.138;2022-10-23T13:41:42;99568.75;;;22.36
34023;BMP280;20673;48.980;8.138;2022-10-23T13:44:12;99571.58;;;22.31
34023;BMP280;20673;48.980;8.138;2022-10-23T13:46:39;99567.18;;;22.13
34023;BMP280;20673;48.980;8.138;2022-10-23T13:49:05;99559.06;;;22.02
34023;BMP280;20673;48.980;8.138;2022-10-23T13:51:48;99549.09;;;21.73
34023;BMP280;20673;48.980;8.138;2022-10-23T13:54:19;99547.52;;;21.60
34023;BMP280;20673;48.980;8.138;2022-10-23T13:56:46;99541.68;;;21.48
34023;BMP280;20673;48.980;8.138;2022-10-23T13:59:14;99537.86;;;21.47
34023;BMP280;20673;48.980;8.138;2022-10-23T14:01:41;99541.02;;;21.39
34023;BMP280;20673;48.980;8.138;2022-10-23T14:04:08;99539.28;;;21.22
34023;BMP280;20673;48.980;8.138;2022-10-23T14:06:36;99540.88;;;21.20
34023;BMP280;20673;48.980;8.138;2022-10-23T14:09:07;99547.36;;;21.09
34023;BMP280;20673;48.980;8.138;2022-10-23T14:11:33;99547.15;;;21.00
34023;BMP280;20673;48.980;8.138;2022-10-23T14:14:00;99547.96;;;20.94
34023;BMP280;20673;48.980;8.138;2022-10-23T14:16:27;99545.93;;;20.85
34023;BMP280;20673;48.980;8.138;2022-10-23T14:18:53;99545.86;;;20.90
34023;BMP280;20673;48.980;8.138;2022-10-23T14:21:22;99544.04;;;20.90
34023;BMP280;20673;48.980;8.138;2022-10-23T14:23:51;99550.50;;;20.81
34023;BMP280;20673;48.980;8.138;2022-10-23T14:26:22;99545.54;;;20.84
34023;BMP280;20673;48.980;8.138;2022-10-23T14:28:51;99545.33;;;20.90
34023;BMP280;20673;48.980;8.138;2022-10-23T14:31:19;99544.50;;;20.80
34023;BMP280;20673;48.980;8.138;2022-10-23T14:33:54;99544.81;;;20.69
34023;BMP280;20673;48.980;8.138;2022-10-23T14:36:21;99547.06;;;20.60
34023;BMP280;20673;48.980;8.138;2022-10-23T14:38:48;99552.25;;;20.52
34023;BMP280;20673;48.980;8.138;2022-10-23T14:41:16;99547.50;;;20.47
34023;BMP280;20673;48.980;8.138;2022-10-23T14:43:43;99541.36;;;20.38
34023;BMP280;20673;48.980;8.138;2022-10-23T14:46:15;99538.34;;;20.28
34023;BMP280;20673;48.980;8.138;2022-10-23T14:48:42;99535.10;;;20.22
34023;BMP280;20673;48.980;8.138;2022-10-23T14:51:21;99527.45;;;20.19
34023;BMP280;20673;48.980;8.138;2022-10-23T14:53:53;99529.93;;;20.08
34023;BMP280;20673;48.980;8.138;2022-10-23T14:56:21;99527.26;;;20.06
34023;BMP280;20673;48.980;8.138;2022-10-23T14:58:48;99526.83;;;20.02
34023;BMP280;20673;48.980;8.138;2022-10-23T15:01:14;99507.18;;;20.04
34023;BMP280;20673;48.980;8.138;2022-10-23T15:03:40;99504.39;;;19.98
34023;BMP280;20673;48.980;8.138;2022-10-23T15:06:07;99498.67;;;19.95
34023;BMP280;20673;48.980;8.138;2022-10-23T15:08:34;99492.93;;;19.97
34023;BMP280;20673;48.980;8.138;2022-10-23T15:11:03;99491.24;;;20.00
34023;BMP280;20673;48.980;8.138;2022-10-23T15:13:30;99492.31;;;20.16
34023;BMP280;20673;48.980;8.138;2022-10-23T15:16:06;99486.20;;;20.28
34023;BMP280;20673;48.980;8.138;2022-10-23T15:18:33;99481.98;;;20.47
34023;BMP280;20673;48.980;8.138;2022-10-23T15:21:04;99470.86;;;20.54
34023;BMP280;20673;48.980;8.138;2022-10-23T15:23:40;99469.29;;;20.55
34023;BMP280;20673;48.980;8.138;2022-10-23T15:26:09;99468.31;;;20.47
34023;BMP280;20673;48.980;8.138;2022-10-23T15:28:36;99466.79;;;20.50
34023;BMP280;20673;48.980;8.138;2022-10-23T15:31:04;99457.76;;;20.45
34023;BMP280;20673;48.980;8.138;2022-10-23T15:33:30;99453.90;;;20.30
34023;BMP280;20673;48.980;8.138;2022-10-23T15:35:56;99458.60;;;20.26
34023;BMP280;20673;48.980;8.138;2022-10-23T15:38:23;99454.01;;;20.14
34023;BMP280;20673;48.980;8.138;2022-10-23T15:40:49;99443.45;;;19.97
34023;BMP280;20673;48.980;8.138;2022-10-23T15:43:16;99442.81;;;19.83
34023;BMP280;20673;48.980;8.138;2022-10-23T15:45:42;99436.53;;;19.74
34023;BMP280;20673;48.980;8.138;2022-10-23T15:48:09;99452.72;;;19.66
34023;BMP280;20673;48.980;8.138;2022-10-23T15:50:36;99452.72;;;19.57
34023;BMP280;20673;48.980;8.138;2022-10-23T15:53:03;99444.42;;;19.42
34023;BMP280;20673;48.980;8.138;2022-10-23T15:55:29;99434.03;;;19.22
34023;BMP280;20673;48.980;8.138;2022-10-23T15:57:55;99434.86;;;19.05
34023;BMP280;20673;48.980;8.138;2022-10-23T16:00:23;99448.92;;;18.86
34023;BMP280;20673;48.980;8.138;2022-10-23T16:02:49;99444.65;;;18.83
34023;BMP280;20673;48.980;8.138;2022-10-23T16:05:15;99435.90;;;18.71
34023;BMP280;20673;48.980;8.138;2022-10-23T16:07:42;99428.19;;;18.57
34023;BMP280;20673;48.980;8.138;2022-10-23T16:10:08;99421.43;;;18.48